createdAt,value
2023-04-13T00:04:37.835Z,3.10
2023-04-13T00:09:42.105Z,2.53
2023-04-13T00:14:47.029Z,2.63
2023-04-13T00:19:53.946Z,2.58
2023-04-13T00:24:58.290Z,3.00
2023-04-13T00:30:02.235Z,3.33
2023-04-13T00:35:05.795Z,2.97
2023-04-13T00:40:11.178Z,2.83
2023-04-13T00:45:17.098Z,2.60
2023-04-13T00:50:21.455Z,2.75
2023-04-13T00:55:25.764Z,2.55
2023-04-13T01:00:29.342Z,2.28
2023-04-13T01:05:43.297Z,2.22
2023-04-13T01:10:57.762Z,1.90
2023-04-13T01:16:19.650Z,3.05
2023-04-13T01:21:27.904Z,2.55
2023-04-13T01:31:42.303Z,2.42
2023-04-13T01:36:47.821Z,2.00
2023-04-13T01:41:51.890Z,2.33
2023-04-13T01:47:14.339Z,2.65
2023-04-13T01:52:28.354Z,2.47
2023-04-13T02:02:41.505Z,2.88
2023-04-13T02:07:46.131Z,2.55
2023-04-13T02:12:49.884Z,2.15
2023-04-13T02:17:54.966Z,2.13
2023-04-13T02:22:59.301Z,1.90
2023-04-13T02:28:03.328Z,2.42
2023-04-13T02:33:09.896Z,2.28
2023-04-13T02:38:14.261Z,1.98
2023-04-13T02:43:21.421Z,2.85
2023-04-13T02:48:25.940Z,2.35
2023-04-13T02:53:32.652Z,2.83
2023-04-13T02:58:42.064Z,2.00
2023-04-13T03:03:53.125Z,2.10
2023-04-13T03:08:59.793Z,2.50
2023-04-13T03:14:05.294Z,1.95
2023-04-13T03:19:10.608Z,2.65
2023-04-13T03:24:17.229Z,3.10
2023-04-13T03:29:22.162Z,2.60
2023-04-13T03:34:27.858Z,2.55
2023-04-13T03:39:32.008Z,2.15
2023-04-13T03:44:35.596Z,2.70
2023-04-13T03:49:42.691Z,2.40
2023-04-13T03:54:47.549Z,2.10
2023-04-13T03:59:52.562Z,1.77
2023-04-13T04:05:06.954Z,2.15
2023-04-13T04:10:12.157Z,2.78
2023-04-13T04:15:16.384Z,1.83
2023-04-13T04:20:22.535Z,1.98
2023-04-13T04:25:28.095Z,1.90
2023-04-13T04:30:34.111Z,2.08
2023-04-13T04:35:43.590Z,3.15
2023-04-13T04:40:48.051Z,3.00
2023-04-13T04:45:52.773Z,1.83
2023-04-13T04:50:58.602Z,2.97
2023-04-13T04:56:07.848Z,2.97
2023-04-13T05:01:23.229Z,2.80
2023-04-13T05:06:36.929Z,3.50
2023-04-13T05:11:42.997Z,3.70
2023-04-13T05:16:48.427Z,3.38
2023-04-13T05:22:16.732Z,4.25
2023-04-13T05:27:27.930Z,3.85
2023-04-13T05:32:36.179Z,4.38
2023-04-13T05:37:40.783Z,4.53
2023-04-13T05:42:52.136Z,4.93
2023-04-13T05:48:02.882Z,3.88
2023-04-13T05:53:07.079Z,3.47
2023-04-13T05:58:20.429Z,4.40
2023-04-13T06:03:30.130Z,3.95
2023-04-13T06:08:33.788Z,5.07
2023-04-13T06:13:38.321Z,3.55
2023-04-13T06:18:41.854Z,4.68
2023-04-13T06:23:44.987Z,4.20
2023-04-13T06:28:58.091Z,3.78
2023-04-13T06:34:02.819Z,4.03
2023-04-13T06:39:11.877Z,3.92
2023-04-13T06:44:18.448Z,4.65
2023-04-13T06:49:29.231Z,3.65
2023-04-13T06:54:35.922Z,4.27
2023-04-13T06:59:48.238Z,4.60
2023-04-13T07:04:51.891Z,4.38
2023-04-13T07:10:00.473Z,4.13
2023-04-13T07:15:05.826Z,4.78
2023-04-13T07:20:09.785Z,5.32
2023-04-13T07:25:13.546Z,5.45
2023-04-13T07:30:17.256Z,5.15
2023-04-13T07:35:23.053Z,5.88
2023-04-13T07:40:27.929Z,6.27
2023-04-13T07:45:34.266Z,4.97
2023-04-13T07:50:45.055Z,5.10
2023-04-13T07:55:55.128Z,5.72
2023-04-13T08:01:00.838Z,4.45
2023-04-13T08:06:09.278Z,4.78
2023-04-13T08:11:13.496Z,5.47
2023-04-13T08:16:18.717Z,4.32
2023-04-13T08:21:22.474Z,5.25
2023-04-13T08:26:27.092Z,5.70
2023-04-13T08:31:32.747Z,4.78
2023-04-13T08:36:41.293Z,4.82
2023-04-13T08:46:55.251Z,5.10
2023-04-13T08:52:07.038Z,5.50
2023-04-13T08:57:13.160Z,5.30
2023-04-13T09:02:17.347Z,5.40
2023-04-13T09:07:34.919Z,5.18
2023-04-13T09:12:44.229Z,5.43
2023-04-13T09:17:48.576Z,5.88
2023-04-13T09:22:53.744Z,6.07
2023-04-13T09:27:57.514Z,4.72
2023-04-13T09:33:11.948Z,4.03
2023-04-13T09:38:16.563Z,4.80
2023-04-13T09:43:20.928Z,4.60
2023-04-13T09:48:24.177Z,3.87
2023-04-13T09:53:29.589Z,4.45
2023-04-13T09:58:33.064Z,4.75
2023-04-13T10:03:38.467Z,4.22
2023-04-13T10:08:46.835Z,4.05
2023-04-13T10:13:58.200Z,3.78
2023-04-13T10:19:11.125Z,4.47
2023-04-13T10:24:15.496Z,5.13
2023-04-13T10:29:28.538Z,5.33
2023-04-13T10:34:44.241Z,3.50
2023-04-13T10:39:48.739Z,4.47
2023-04-13T10:44:54.425Z,5.53
2023-04-13T10:49:59.057Z,3.90
2023-04-13T10:55:03.729Z,3.67
2023-04-13T11:00:34.757Z,5.20
2023-04-13T11:05:58.024Z,3.95
2023-04-13T11:11:01.706Z,4.35
2023-04-13T11:16:07.056Z,3.90
2023-04-13T11:21:17.328Z,5.43
2023-04-13T11:26:35.802Z,3.90
2023-04-13T11:31:41.337Z,3.42
2023-04-13T11:36:49.184Z,3.63
2023-04-13T11:41:52.681Z,3.95
2023-04-13T11:46:56.981Z,3.92
2023-04-13T11:52:02.070Z,3.67
2023-04-13T11:57:06.516Z,4.32
2023-04-13T12:02:20.890Z,3.70
2023-04-13T12:07:26.641Z,4.78
2023-04-13T12:12:51.525Z,4.03
2023-04-13T12:18:08.936Z,4.00
2023-04-13T12:23:23.410Z,4.20
2023-04-13T12:28:36.386Z,4.57
2023-04-13T12:33:40.771Z,3.67
2023-04-13T12:38:44.551Z,3.17
2023-04-13T12:43:48.389Z,3.80
2023-04-13T12:48:52.855Z,3.72
2023-04-13T12:53:56.297Z,4.27
2023-04-13T12:59:01.422Z,4.10
2023-04-13T13:04:06.403Z,4.28
2023-04-13T13:09:11.064Z,3.58
2023-04-13T13:14:14.368Z,4.00
2023-04-13T13:19:18.280Z,4.05
2023-04-13T13:24:22.811Z,4.00
2023-04-13T13:29:28.220Z,5.18
2023-04-13T13:34:31.481Z,5.22
2023-04-13T13:39:34.863Z,3.58
2023-04-13T13:44:38.410Z,5.18
2023-04-13T13:49:41.575Z,3.92
2023-04-13T13:54:54.921Z,4.30
2023-04-13T13:59:59.089Z,3.22
2023-04-13T14:05:02.256Z,3.63
2023-04-13T14:10:07.661Z,3.65
2023-04-13T14:15:13.180Z,4.22
2023-04-13T14:20:16.910Z,3.38
2023-04-13T14:25:20.694Z,4.30
2023-04-13T14:30:26.275Z,4.22
2023-04-13T14:35:31.443Z,5.07
2023-04-13T14:40:36.296Z,3.78
2023-04-13T14:45:39.856Z,4.13
2023-04-13T14:50:43.507Z,4.97
2023-04-13T14:55:47.906Z,3.42
2023-04-13T15:00:51.759Z,4.13
2023-04-13T15:06:02.862Z,3.72
2023-04-13T15:11:09.293Z,5.05
2023-04-13T15:16:12.906Z,3.75
2023-04-13T15:21:17.066Z,3.92
2023-04-13T15:26:22.002Z,3.55
2023-04-13T15:31:26.071Z,3.38
2023-04-13T15:36:30.056Z,4.03
2023-04-13T15:41:33.280Z,4.03
2023-04-13T15:46:38.092Z,4.15
2023-04-13T15:51:41.580Z,3.42
2023-04-13T15:56:45.236Z,3.50
2023-04-13T16:01:50.580Z,3.45
2023-04-13T16:07:09.370Z,2.97
2023-04-13T16:12:17.876Z,3.80
2023-04-13T16:17:31.340Z,3.33
2023-04-13T16:22:35.720Z,5.10
2023-04-13T16:27:40.357Z,3.27
2023-04-13T16:32:47.331Z,4.15
2023-04-13T16:37:50.753Z,4.70
2023-04-13T16:42:55.046Z,3.80
2023-04-13T16:47:58.766Z,3.67
2023-04-13T16:53:02.956Z,2.83
2023-04-13T16:58:07.689Z,4.50
2023-04-13T17:03:11.970Z,3.35
2023-04-13T17:08:17.190Z,2.97
2023-04-13T17:13:21.455Z,3.63
2023-04-13T17:18:26.241Z,3.40
2023-04-13T17:23:31.066Z,3.55
2023-04-13T17:28:35.261Z,3.38
2023-04-13T17:33:40.205Z,3.30
2023-04-13T17:38:44.972Z,3.00
2023-04-13T17:43:49.623Z,3.25
2023-04-13T17:48:53.328Z,3.92
2023-04-13T17:53:57.232Z,3.85
2023-04-13T17:59:01.157Z,3.88
2023-04-13T18:04:06.026Z,3.50
2023-04-13T18:09:13.005Z,4.13
2023-04-13T18:19:20.875Z,4.40
2023-04-13T18:24:25.171Z,4.10
2023-04-13T18:29:28.404Z,3.33
2023-04-13T18:34:32.206Z,3.65
2023-04-13T18:39:36.939Z,3.50
2023-04-13T18:44:40.892Z,3.20
2023-04-13T18:49:44.353Z,4.05
2023-04-13T18:54:48.508Z,5.35
2023-04-13T18:59:52.453Z,5.03
2023-04-13T19:04:56.137Z,4.32
2023-04-13T19:09:59.314Z,3.67
2023-04-13T19:15:04.167Z,3.53
2023-04-13T19:20:11.097Z,4.57
2023-04-13T19:30:20.989Z,5.03
2023-04-13T19:35:26.647Z,3.95
2023-04-13T19:40:30.388Z,4.40
2023-04-13T19:45:35.582Z,3.60
2023-04-13T19:50:39.178Z,4.35
2023-04-13T19:55:42.664Z,3.80
2023-04-13T20:00:47.552Z,3.47
2023-04-13T20:05:51.398Z,3.17
2023-04-13T20:10:56.027Z,3.35
2023-04-13T20:16:00.418Z,2.80
2023-04-13T20:21:05.751Z,3.35
2023-04-13T20:26:08.857Z,3.22
2023-04-13T20:31:13.156Z,3.75
2023-04-13T20:36:17.035Z,4.30
2023-04-13T20:41:22.203Z,3.67
2023-04-13T20:46:35.159Z,2.42
2023-04-13T20:51:39.958Z,3.45
2023-04-13T20:56:43.102Z,2.65
2023-04-13T21:01:46.836Z,3.22
2023-04-13T21:06:50.595Z,3.33
2023-04-13T21:11:53.742Z,7.20
2023-04-13T21:16:57.498Z,5.07
2023-04-13T21:22:01.397Z,3.75
2023-04-13T21:27:04.925Z,3.67
2023-04-13T21:32:08.560Z,3.45
2023-04-13T21:37:12.359Z,3.88
2023-04-13T21:42:17.347Z,3.00
2023-04-13T21:47:21.157Z,4.22
2023-04-13T21:52:24.555Z,5.35
2023-04-13T21:57:27.665Z,4.15
2023-04-13T22:02:32.109Z,4.03
2023-04-13T22:07:42.425Z,3.80
2023-04-13T22:12:47.627Z,3.15
2023-04-13T22:17:52.016Z,3.15
2023-04-13T22:22:55.583Z,4.80
2023-04-13T22:27:59.775Z,3.65
2023-04-13T22:33:03.009Z,2.97
2023-04-13T22:38:07.096Z,3.38
2023-04-13T22:43:10.693Z,4.30
2023-04-13T22:48:14.080Z,3.70
2023-04-13T22:53:17.763Z,5.13
2023-04-13T22:58:21.308Z,4.28
2023-04-13T23:03:24.706Z,4.15
2023-04-13T23:08:29.628Z,4.57
2023-04-13T23:13:33.393Z,5.10
2023-04-13T23:18:36.949Z,4.10
2023-04-13T23:23:40.875Z,4.03
2023-04-13T23:28:44.619Z,4.03
2023-04-13T23:33:48.523Z,3.85
2023-04-13T23:38:52.209Z,1.98
2023-04-13T23:43:55.808Z,1.25
2023-04-13T23:49:00.089Z,1.38
2023-04-13T23:54:03.999Z,1.17
2023-04-13T23:59:08.252Z,1.20
